»·PEaware :: N261AB KSAC-KSBP

N261AB :: KSAC-KSBP

FLIGHT INFORMATION

Flight Status: Arrived
Operator: Privately registered:
United States
More flights under this callsign
Pilot: Brian K. (18535)
Aircraft: Unknown
(DA62)
More flights by this aircraft type
Origin: KSAC Sacramento Executive
United States
Destination: KSBP San Luis Co Regl
United States
More flights between these airports :: More routes between these airports
Route: SAC V23 LIN V113 PRB KIKII
File this flight plan on PilotEdge
Remarks:
Altitude:
(Current/Filed)
7,000ft
Speed:
(Current/Filed)
160kts
Departed: 03-Feb-19 02:59 PM
Arrived: 03-Feb-19 04:39 PM
Distance/Time
Traveled:
201nm/1:39
Distance/Time
To Go:
Arrived

Flight Plot

Page will automatically refresh every two minutes.

Flight plan parsing failed; only flown route is shown


Map Options




Map Legend


Flown Route
Filed Route
Departure Airport
Arrival Airport
Navaid (VOR, NDB)
Fix

Horizontal Profiles

Position Reports

Time Latitude Longitude Heading Altitude Ground
Speed
03-Feb-19 14:36 38.514683 -121.499316 222 27ft 0kts
03-Feb-19 14:37 38.514683 -121.499316 223 27ft 0kts
03-Feb-19 14:38 38.514683 -121.499316 223 27ft 0kts
03-Feb-19 14:39 38.514683 -121.499316 223 27ft 0kts
03-Feb-19 14:40 38.514683 -121.499316 223 27ft 0kts
03-Feb-19 14:41 38.514683 -121.499316 223 27ft 0kts
03-Feb-19 14:42 38.514683 -121.499316 223 27ft 0kts
03-Feb-19 14:43 38.514683 -121.499316 223 27ft 0kts
03-Feb-19 14:44 38.514683 -121.499316 223 27ft 0kts
03-Feb-19 14:45 38.514683 -121.499316 223 27ft 0kts
03-Feb-19 14:46 38.514683 -121.499316 223 27ft 0kts
03-Feb-19 14:47 38.514683 -121.499316 222 27ft 0kts
03-Feb-19 14:48 38.514683 -121.499316 222 27ft 0kts
03-Feb-19 14:49 38.514867 -121.498877 104 27ft 4kts
03-Feb-19 14:50 38.514361 -121.498081 106 27ft 0kts
03-Feb-19 14:51 38.514360 -121.498079 106 27ft 0kts
03-Feb-19 14:52 38.513626 -121.496294 116 27ft 7kts
03-Feb-19 14:53 38.514930 -121.494324 34 27ft 9kts
03-Feb-19 14:54 38.518286 -121.491543 33 27ft 18kts
03-Feb-19 14:55 38.519174 -121.490371 99 27ft 0kts
03-Feb-19 14:56 38.519174 -121.490371 99 27ft 0kts
03-Feb-19 14:57 38.518390 -121.489746 213 27ft 4kts
03-Feb-19 14:58 38.501861 -121.503517 211 640ft 101kts
03-Feb-19 14:59 38.478606 -121.522698 210 1997ft 103kts
03-Feb-19 15:00 38.453827 -121.543014 212 2978ft 115kts
03-Feb-19 15:01 38.425796 -121.523780 138 3668ft 132kts
03-Feb-19 15:02 38.401390 -121.488107 136 4360ft 135kts
03-Feb-19 15:03 38.376963 -121.451671 137 5049ft 136kts
03-Feb-19 15:04 38.352188 -121.414729 138 5740ft 138kts
03-Feb-19 15:05 38.327113 -121.377446 139 6425ft 140kts
03-Feb-19 15:06 38.301460 -121.339293 138 7038ft 145kts
03-Feb-19 15:07 38.275274 -121.300350 140 7632ft 146kts
03-Feb-19 15:08 38.249000 -121.261375 139 8209ft 147kts
03-Feb-19 15:09 38.222416 -121.221939 139 8795ft 148kts
03-Feb-19 15:10 38.194427 -121.180594 139 8952ft 162kts
03-Feb-19 15:11 38.164531 -121.136343 139 8949ft 166kts
03-Feb-19 15:12 38.134369 -121.091771 138 8948ft 167kts
03-Feb-19 15:13 38.104177 -121.047136 138 8948ft 168kts
03-Feb-19 15:14 38.072428 -121.005805 172 8947ft 154kts
03-Feb-19 15:15 38.030766 -120.999446 180 8949ft 151kts
03-Feb-19 15:16 37.989217 -120.994866 184 8945ft 151kts
03-Feb-19 15:17 37.945421 -120.990211 183 8950ft 160kts
03-Feb-19 15:18 37.900644 -120.985667 182 8948ft 159kts
03-Feb-19 15:19 37.859621 -120.981499 180 8963ft 153kts
03-Feb-19 15:20 37.817889 -120.977193 180 8969ft 149kts
03-Feb-19 15:21 37.776757 -120.972965 178 8974ft 147kts
03-Feb-19 15:22 37.736192 -120.968779 178 8978ft 147kts
03-Feb-19 15:23 37.695689 -120.964616 178 8979ft 147kts
03-Feb-19 15:24 37.655183 -120.960475 178 8979ft 146kts
03-Feb-19 15:25 37.616194 -120.966118 205 8979ft 145kts
03-Feb-19 15:26 37.580516 -120.989593 206 8978ft 145kts
03-Feb-19 15:27 37.545158 -121.013418 206 8977ft 144kts
03-Feb-19 15:28 37.509883 -121.037291 207 8978ft 144kts
03-Feb-19 15:29 37.471677 -121.041751 171 8979ft 148kts
03-Feb-19 15:30 37.431691 -121.028411 170 8977ft 149kts
03-Feb-19 15:31 37.391739 -121.014497 169 8977ft 149kts
03-Feb-19 15:32 37.351953 -121.000511 169 8977ft 148kts
03-Feb-19 15:33 37.312338 -120.986578 168 8977ft 148kts
03-Feb-19 15:34 37.272806 -120.972690 168 8977ft 148kts
03-Feb-19 15:35 37.233213 -120.958781 169 8984ft 149kts
03-Feb-19 15:36 37.193106 -120.944717 169 8990ft 151kts
03-Feb-19 15:37 37.152833 -120.930620 169 8997ft 152kts
03-Feb-19 15:38 37.112187 -120.916406 169 9003ft 154kts
03-Feb-19 15:39 37.071114 -120.902063 169 9003ft 155kts
03-Feb-19 15:40 37.029619 -120.887584 169 9003ft 157kts
03-Feb-19 15:41 36.987422 -120.872877 169 9004ft 159kts
03-Feb-19 15:42 36.944914 -120.858075 169 9004ft 160kts
03-Feb-19 15:43 36.902127 -120.843186 169 9004ft 160kts
03-Feb-19 15:44 36.862058 -120.829266 169 9006ft 161kts
03-Feb-19 15:45 36.819089 -120.814353 169 9006ft 161kts
03-Feb-19 15:46 36.776040 -120.799429 169 9006ft 161kts
03-Feb-19 15:47 36.732762 -120.784454 169 8935ft 163kts
03-Feb-19 15:48 36.689235 -120.773251 175 8933ft 160kts
03-Feb-19 15:49 36.647810 -120.764991 175 8933ft 159kts
03-Feb-19 15:50 36.606466 -120.756754 175 8942ft 159kts
03-Feb-19 15:51 36.562951 -120.748108 176 8957ft 159kts
03-Feb-19 15:52 36.519853 -120.739580 176 8969ft 160kts
03-Feb-19 15:53 36.477485 -120.731177 176 8989ft 163kts
03-Feb-19 15:54 36.440564 -120.723856 176 8985ft 165kts
03-Feb-19 15:55 36.401910 -120.716236 175 8986ft 165kts
03-Feb-19 15:56 36.368128 -120.709531 175 8986ft 164kts
03-Feb-19 15:57 36.331234 -120.702239 175 8987ft 163kts
03-Feb-19 15:58 36.299408 -120.696004 175 8989ft 163kts
03-Feb-19 15:59 36.263575 -120.688932 175 8987ft 163kts
03-Feb-19 16:00 36.224521 -120.681235 176 8985ft 163kts
03-Feb-19 16:02 36.184900 -120.673423 175 8989ft 163kts
03-Feb-19 16:03 36.148564 -120.666310 176 8988ft 164kts
03-Feb-19 16:04 36.107165 -120.662003 180 8986ft 161kts
03-Feb-19 16:05 36.062592 -120.658392 180 8986ft 161kts
03-Feb-19 16:06 36.018578 -120.654818 180 8985ft 160kts
03-Feb-19 16:07 35.975705 -120.651343 180 8985ft 159kts
03-Feb-19 16:08 35.932820 -120.647871 180 8985ft 159kts
03-Feb-19 16:09 35.894879 -120.644804 180 8978ft 159kts
03-Feb-19 16:10 35.852135 -120.641356 180 8979ft 159kts
03-Feb-19 16:11 35.808600 -120.637841 180 8978ft 157kts
03-Feb-19 16:12 35.765427 -120.634362 180 8978ft 156kts
03-Feb-19 16:13 35.721985 -120.630885 180 8978ft 156kts
03-Feb-19 16:14 35.679075 -120.627525 180 8978ft 156kts
03-Feb-19 16:15 35.640018 -120.602698 154 8977ft 160kts
03-Feb-19 16:16 35.602671 -120.574702 154 8978ft 157kts
03-Feb-19 16:17 35.565557 -120.546979 154 8783ft 158kts
03-Feb-19 16:18 35.528466 -120.519336 154 8238ft 157kts
03-Feb-19 16:19 35.491761 -120.492016 154 7549ft 154kts
03-Feb-19 16:19 35.461810 -120.469743 153 6979ft 153kts
03-Feb-19 16:21 35.417348 -120.455548 180 6177ft 145kts
03-Feb-19 16:22 35.378002 -120.453650 179 5495ft 145kts
03-Feb-19 16:23 35.339483 -120.451773 179 5206ft 141kts
03-Feb-19 16:23 35.306954 -120.450217 179 5205ft 144kts
03-Feb-19 16:24 35.267249 -120.448308 179 5206ft 144kts
03-Feb-19 16:25 35.227435 -120.446397 179 5207ft 144kts
03-Feb-19 16:26 35.187489 -120.444480 179 5208ft 144kts
03-Feb-19 16:28 35.140796 -120.442243 180 5195ft 145kts
03-Feb-19 16:28 35.107138 -120.441775 184 4840ft 144kts
03-Feb-19 16:29 35.068699 -120.437061 143 4139ft 148kts
03-Feb-19 16:30 35.073885 -120.393990 13 3443ft 157kts
03-Feb-19 16:31 35.102674 -120.420284 303 3298ft 134kts
03-Feb-19 16:32 35.128316 -120.455524 301 3142ft 143kts
03-Feb-19 16:33 35.151060 -120.493167 302 2880ft 128kts
03-Feb-19 16:34 35.172393 -120.528126 303 2552ft 139kts
03-Feb-19 16:35 35.194078 -120.565213 301 1853ft 122kts
03-Feb-19 16:36 35.211204 -120.595187 300 1138ft 100kts
03-Feb-19 16:37 35.226382 -120.621527 299 601ft 89kts
03-Feb-19 16:38 35.237597 -120.641203 330 215ft 17kts
03-Feb-19 16:39 35.237718 -120.639223 105 215ft 12kts
03-Feb-19 16:40 35.238110 -120.636734 266 215ft 0kts

Navigation Log

Ident Type
Flight plan parsing failed, navigation log unavailable